Time;durP1;ratioP1;P1;durP2;ratioP2;P2;SDS_P1;SDS_P2;PMS_P1;PMS_P2;Temp;Humidity;BMP_temperature;BMP_pressure;BME280_temperature;BME280_humidity;BME280_pressure;Samples;Min_cycle;Max_cycle;Signal;HPM_P1;HPM_P2
2024/01/10 00:01:12;;;;;;;25.48;13.95;;;-5.90;99.90;;;;;;485216;245;27418;-65
2024/01/10 00:03:13;;;;;;;28.73;14.65;;;-5.90;99.90;;;;;;485194;245;27504;-64
2024/01/10 00:05:15;;;;;;;26.45;12.70;;;-5.80;99.90;;;;;;485125;242;27415;-64
2024/01/10 00:07:16;;;;;;;20.30;12.05;;;-5.80;99.90;;;;;;485202;245;27890;-66
2024/01/10 00:09:17;;;;;;;21.83;11.10;;;-5.80;99.90;;;;;;478573;245;27866;-64
2024/01/10 00:11:18;;;;;;;22.60;11.48;;;-5.80;99.90;;;;;;478437;248;27505;-65
2024/01/10 00:13:20;;;;;;;22.15;11.15;;;-5.80;99.90;;;;;;478442;248;27380;-65
2024/01/10 00:15:21;;;;;;;21.95;11.00;;;-5.80;99.90;;;;;;478423;248;27522;-65
2024/01/10 00:17:22;;;;;;;18.40;10.80;;;-5.80;99.90;;;;;;478449;248;27506;-65
2024/01/10 00:19:23;;;;;;;22.87;11.38;;;-5.80;99.90;;;;;;478454;248;27424;-65
2024/01/10 00:21:25;;;;;;;23.50;10.38;;;-5.80;99.90;;;;;;478437;248;28965;-64
2024/01/10 00:23:26;;;;;;;18.67;10.23;;;-5.70;99.90;;;;;;478446;248;27769;-65
2024/01/10 00:25:27;;;;;;;15.45;9.15;;;-5.70;99.90;;;;;;478418;247;27423;-65
2024/01/10 00:27:28;;;;;;;17.30;9.70;;;-5.70;99.90;;;;;;478452;248;27411;-64
2024/01/10 00:29:30;;;;;;;19.25;10.45;;;-5.70;99.90;;;;;;478449;248;27484;-64
2024/01/10 00:31:31;;;;;;;20.55;9.93;;;-5.80;99.90;;;;;;478439;248;27425;-65
2024/01/10 00:33:32;;;;;;;18.33;10.07;;;-5.80;99.90;;;;;;478447;248;27955;-66
2024/01/10 00:35:33;;;;;;;19.62;10.52;;;-5.80;99.90;;;;;;478417;248;27976;-64
2024/01/10 00:37:35;;;;;;;18.70;10.05;;;-5.80;99.90;;;;;;478446;248;27419;-64
2024/01/10 00:39:36;;;;;;;17.05;10.43;;;-5.80;99.90;;;;;;478435;248;27494;-64
2024/01/10 00:41:37;;;;;;;20.02;10.82;;;-5.80;99.90;;;;;;478435;248;27419;-65
2024/01/10 00:43:39;;;;;;;22.67;11.10;;;-5.80;99.90;;;;;;478446;248;27433;-65
2024/01/10 00:45:40;;;;;;;18.50;11.50;;;-5.80;99.90;;;;;;478409;248;27492;-64
2024/01/10 00:47:41;;;;;;;16.55;10.45;;;-5.80;99.90;;;;;;478442;248;27883;-65
2024/01/10 00:49:42;;;;;;;20.95;12.40;;;-5.80;99.90;;;;;;478445;248;27861;-65
2024/01/10 00:51:44;;;;;;;19.27;10.82;;;-5.90;99.90;;;;;;478437;248;27489;-64
2024/01/10 00:53:45;;;;;;;19.23;10.60;;;-5.80;99.90;;;;;;478438;248;27403;-64
2024/01/10 00:55:46;;;;;;;20.30;11.27;;;-5.80;99.90;;;;;;478414;248;27423;-64
2024/01/10 00:57:47;;;;;;;17.75;10.55;;;-5.80;99.90;;;;;;478442;248;27430;-65
2024/01/10 00:59:49;;;;;;;22.33;11.65;;;-5.80;99.90;;;;;;478441;248;27967;-65
2024/01/10 01:01:50;;;;;;;17.15;11.25;;;-5.80;99.90;;;;;;478437;248;27894;-65
2024/01/10 01:03:51;;;;;;;18.77;10.85;;;-5.80;99.90;;;;;;478433;247;27505;-64
2024/01/10 01:05:52;;;;;;;21.33;10.95;;;-5.80;99.90;;;;;;478426;248;27447;-64
2024/01/10 01:07:54;;;;;;;17.15;10.15;;;-5.80;99.90;;;;;;478437;248;27890;-64
2024/01/10 01:09:55;;;;;;;17.05;10.70;;;-5.70;99.90;;;;;;478447;248;27969;-65
2024/01/10 01:11:56;;;;;;;18.98;10.25;;;-5.70;99.90;;;;;;478437;247;27407;-64
2024/01/10 01:13:57;;;;;;;18.90;11.02;;;-5.70;99.90;;;;;;478405;248;27419;-64
2024/01/10 01:15:59;;;;;;;18.62;10.38;;;-5.60;99.90;;;;;;478441;248;27439;-64
2024/01/10 01:18:00;;;;;;;17.55;11.00;;;-5.60;99.90;;;;;;478436;248;27534;-65
2024/01/10 01:20:04;;;;;;;19.17;11.35;;;-5.60;99.90;;;;;;478443;248;27499;-65
2024/01/10 01:22:02;;;;;;;20.35;11.38;;;-5.50;99.90;;;;;;478295;247;27998;-64
2024/01/10 01:24:04;;;;;;;16.20;10.18;;;-5.50;99.90;;;;;;478416;248;27499;-64
2024/01/10 01:26:05;;;;;;;20.35;10.45;;;-5.50;99.90;;;;;;478443;248;27528;-65
2024/01/10 01:28:06;;;;;;;18.23;10.98;;;-5.50;99.90;;;;;;478441;248;27516;-64
2024/01/10 01:30:08;;;;;;;18.40;11.00;;;-5.40;99.90;;;;;;478448;248;27524;-65
2024/01/10 01:32:09;;;;;;;15.93;10.00;;;-5.40;99.90;;;;;;478431;248;27435;-64
2024/01/10 01:34:10;;;;;;;19.58;10.13;;;-5.40;99.90;;;;;;478406;248;27854;-64
2024/01/10 01:36:11;;;;;;;17.40;10.45;;;-5.40;99.90;;;;;;478430;248;28988;-64
2024/01/10 01:38:13;;;;;;;18.30;10.23;;;-5.30;99.90;;;;;;478436;248;27486;-64
2024/01/10 01:40:14;;;;;;;16.92;9.90;;;-5.30;99.90;;;;;;478437;248;27447;-64
2024/01/10 01:42:15;;;;;;;22.67;10.68;;;-5.30;99.90;;;;;;478426;248;27415;-65
2024/01/10 01:44:16;;;;;;;16.70;10.20;;;-5.30;99.90;;;;;;478405;248;27435;-65
2024/01/10 01:46:18;;;;;;;17.40;11.30;;;-5.30;99.90;;;;;;478436;248;27990;-65
2024/01/10 01:48:19;;;;;;;15.60;9.98;;;-5.30;99.90;;;;;;478428;248;27977;-65
2024/01/10 01:50:20;;;;;;;17.92;11.25;;;-5.20;99.90;;;;;;478429;248;27482;-65
2024/01/10 01:52:21;;;;;;;16.98;10.48;;;-5.20;99.90;;;;;;478445;247;27559;-65
2024/01/10 01:54:23;;;;;;;19.60;9.75;;;-5.20;99.90;;;;;;478366;248;27403;-65
2024/01/10 01:56:24;;;;;;;24.25;10.77;;;-5.20;99.90;;;;;;478429;248;27415;-65
2024/01/10 01:58:25;;;;;;;19.00;10.48;;;-5.20;99.90;;;;;;478439;248;27517;-65
2024/01/10 02:00:26;;;;;;;20.73;11.07;;;-5.10;99.90;;;;;;478441;248;27875;-65
2024/01/10 02:02:28;;;;;;;19.58;10.75;;;-5.10;99.90;;;;;;478434;248;27898;-65
2024/01/10 02:04:30;;;;;;;17.95;10.45;;;;;;;;;;478402;248;27411;-64
2024/01/10 02:06:31;;;;;;;17.55;10.65;;;-5.20;99.90;;;;;;478459;248;28338;-65
2024/01/10 02:08:33;;;;;;;18.17;10.88;;;-5.10;99.90;;;;;;478434;248;27892;-64
2024/01/10 02:10:34;;;;;;;17.67;10.65;;;-5.10;99.90;;;;;;478438;247;27494;-65
2024/01/10 02:12:35;;;;;;;18.20;9.60;;;-5.00;99.90;;;;;;478426;248;27407;-64
2024/01/10 02:14:36;;;;;;;22.60;11.43;;;-5.00;99.90;;;;;;478400;248;27498;-64
2024/01/10 02:16:38;;;;;;;21.23;11.05;;;-5.10;99.90;;;;;;478434;248;27502;-65
2024/01/10 02:18:40;;;;;;;18.30;11.18;;;;;;;;;;478426;248;27419;-64
2024/01/10 02:20:41;;;;;;;16.52;10.85;;;-5.00;99.90;;;;;;478430;248;27193;-65
2024/01/10 02:22:43;;;;;;;19.70;11.07;;;-5.00;99.90;;;;;;478424;248;27431;-65
2024/01/10 02:24:44;;;;;;;18.87;11.73;;;-5.00;99.90;;;;;;478397;248;27430;-65
2024/01/10 02:26:45;;;;;;;20.98;10.57;;;-4.90;99.90;;;;;;478428;248;27875;-65
2024/01/10 02:28:46;;;;;;;16.45;11.00;;;-4.90;99.90;;;;;;478434;248;27912;-64
2024/01/10 02:30:49;;;;;;;20.00;11.95;;;;;;;;;;478432;248;27466;-64
2024/01/10 02:32:50;;;;;;;25.83;13.75;;;-5.00;99.90;;;;;;478431;248;26731;-65
2024/01/10 02:34:51;;;;;;;19.95;11.60;;;-5.00;99.90;;;;;;478383;248;27958;-65
2024/01/10 02:36:53;;;;;;;18.95;11.65;;;-5.00;99.90;;;;;;478432;248;27878;-65
2024/01/10 02:38:54;;;;;;;17.83;11.32;;;-4.90;99.90;;;;;;478455;247;27422;-64
2024/01/10 02:40:56;;;;;;;20.90;11.45;;;-4.90;99.90;;;;;;478433;248;27506;-65
2024/01/10 02:42:56;;;;;;;26.70;12.30;;;-5.00;99.90;;;;;;478383;248;27422;-64
2024/01/10 02:44:58;;;;;;;19.80;11.35;;;-5.00;99.90;;;;;;478401;248;27525;-64
2024/01/10 02:46:59;;;;;;;17.70;11.05;;;-4.90;99.90;;;;;;478429;248;27938;-65
2024/01/10 02:49:00;;;;;;;19.15;11.20;;;-4.90;99.90;;;;;;478454;248;27895;-65
2024/01/10 02:51:03;;;;;;;20.88;12.35;;;;;;;;;;478447;248;27407;-65
2024/01/10 02:53:04;;;;;;;20.10;11.43;;;-4.90;99.90;;;;;;478441;247;26834;-64
2024/01/10 02:55:06;;;;;;;19.50;11.12;;;;;;;;;;478415;248;27866;-65
2024/01/10 02:57:08;;;;;;;19.27;10.27;;;-4.90;99.90;;;;;;478443;248;26735;-64
2024/01/10 02:59:09;;;;;;;20.50;10.88;;;-4.80;99.90;;;;;;478459;248;27434;-64
2024/01/10 03:01:10;;;;;;;21.73;11.20;;;-4.90;99.90;;;;;;478459;248;28279;-64
2024/01/10 03:03:12;;;;;;;21.80;11.60;;;-4.90;99.90;;;;;;478453;248;27932;-65
2024/01/10 03:05:14;;;;;;;15.52;10.25;;;;;;;;;;478353;248;27425;-65
2024/01/10 03:07:15;;;;;;;18.50;10.40;;;-5.10;99.90;;;;;;478445;248;26580;-64
2024/01/10 03:09:18;;;;;;;17.92;10.50;;;;;;;;;;478456;248;28040;-65
2024/01/10 03:11:19;;;;;;;17.10;10.70;;;-5.10;99.90;;;;;;478451;248;26843;-65
2024/01/10 03:13:20;;;;;;;15.57;10.30;;;-5.00;99.90;;;;;;478449;248;27422;-64
2024/01/10 03:15:23;;;;;;;18.90;10.27;;;;;;;;;;478426;248;27532;-66
2024/01/10 03:17:24;;;;;;;21.62;11.40;;;-4.80;99.90;;;;;;478455;248;26730;-64
2024/01/10 03:19:25;;;;;;;16.65;10.27;;;-5.10;99.90;;;;;;478455;248;27423;-65
2024/01/10 03:21:26;;;;;;;18.12;11.12;;;-5.10;99.90;;;;;;478440;248;27529;-64
2024/01/10 03:23:27;;;;;;;23.48;11.25;;;-5.00;99.90;;;;;;478463;248;27851;-65
2024/01/10 03:25:29;;;;;;;20.98;11.05;;;-5.10;99.90;;;;;;478427;248;27894;-65
2024/01/10 03:27:31;;;;;;;19.20;11.43;;;;;;;;;;478288;248;27430;-65
2024/01/10 03:29:35;;;;;;;19.80;11.38;;;;;;;;;;478418;248;26940;-64
2024/01/10 03:31:35;;;;;;;22.33;10.70;;;-5.10;99.90;;;;;;478313;247;26643;-65
2024/01/10 03:33:36;;;;;;;19.92;11.80;;;-5.10;99.90;;;;;;478443;248;27407;-64
2024/01/10 03:35:37;;;;;;;16.90;10.77;;;-5.10;99.90;;;;;;478415;248;27431;-65
2024/01/10 03:37:39;;;;;;;17.17;10.50;;;-5.20;99.90;;;;;;478463;248;27945;-65
2024/01/10 03:39:40;;;;;;;24.70;11.98;;;-5.10;99.90;;;;;;478452;248;27972;-65
2024/01/10 03:41:41;;;;;;;19.85;10.90;;;-5.20;99.90;;;;;;478448;248;27510;-65
2024/01/10 03:43:42;;;;;;;20.62;11.32;;;-5.10;99.90;;;;;;478442;248;27427;-64
2024/01/10 03:45:44;;;;;;;19.85;10.70;;;-5.10;99.90;;;;;;478421;248;27415;-64
2024/01/10 03:47:49;;;;;;;21.73;11.82;;;-5.10;99.90;;;;;;478449;248;27422;-66
2024/01/10 03:49:47;;;;;;;24.35;12.85;;;;;;;;;;478209;248;27413;-65
2024/01/10 03:51:49;;;;;;;17.33;10.70;;;-5.20;99.90;;;;;;478437;248;26862;-65
2024/01/10 03:53:50;;;;;;;17.30;11.02;;;-5.20;99.90;;;;;;478447;247;27406;-65
2024/01/10 03:55:51;;;;;;;18.98;11.65;;;-5.20;99.90;;;;;;478419;248;27510;-65
2024/01/10 03:57:52;;;;;;;21.08;12.27;;;-5.30;99.90;;;;;;478450;248;27879;-65
2024/01/10 03:59:54;;;;;;;21.52;11.80;;;-5.30;99.90;;;;;;478436;248;29009;-65
2024/01/10 04:01:55;;;;;;;22.15;12.07;;;-5.30;99.90;;;;;;478444;248;27481;-64
2024/01/10 04:03:56;;;;;;;17.62;10.60;;;-5.40;99.90;;;;;;478420;248;27418;-64
2024/01/10 04:05:57;;;;;;;24.52;12.48;;;-5.40;99.90;;;;;;478380;248;27530;-65
2024/01/10 04:07:59;;;;;;;20.12;10.90;;;-5.40;99.90;;;;;;478451;248;27535;-65
2024/01/10 04:10:00;;;;;;;20.17;10.88;;;-5.40;99.90;;;;;;478434;248;27426;-64
2024/01/10 04:12:01;;;;;;;22.02;13.07;;;-5.40;99.90;;;;;;478437;248;27891;-65
2024/01/10 04:14:03;;;;;;;21.17;11.90;;;-5.50;99.90;;;;;;478412;248;27423;-64
2024/01/10 04:16:04;;;;;;;21.42;10.65;;;-5.40;99.90;;;;;;478425;248;27425;-65
2024/01/10 04:18:05;;;;;;;22.05;12.35;;;-5.50;99.90;;;;;;478447;248;27419;-64
2024/01/10 04:20:06;;;;;;;19.92;10.35;;;-5.50;99.90;;;;;;478448;248;27450;-65
2024/01/10 04:22:07;;;;;;;23.52;12.05;;;-5.50;99.90;;;;;;478449;248;27419;-65
2024/01/10 04:24:09;;;;;;;19.65;12.05;;;-5.50;99.90;;;;;;478420;248;28016;-64
2024/01/10 04:26:10;;;;;;;16.75;11.00;;;-5.50;99.90;;;;;;478443;248;27882;-64
2024/01/10 04:28:11;;;;;;;23.23;12.68;;;-5.50;99.90;;;;;;478441;248;27497;-64
2024/01/10 04:30:13;;;;;;;18.98;11.48;;;-5.50;99.90;;;;;;478445;248;27422;-65
2024/01/10 04:32:14;;;;;;;19.25;11.40;;;-5.50;99.90;;;;;;478437;248;27442;-64
2024/01/10 04:34:15;;;;;;;23.08;12.37;;;-5.50;99.90;;;;;;478397;248;27509;-64
2024/01/10 04:36:16;;;;;;;18.75;11.20;;;-5.60;99.90;;;;;;478439;248;27977;-64
2024/01/10 04:38:18;;;;;;;22.85;11.95;;;-5.60;99.90;;;;;;478443;248;27883;-66
2024/01/10 04:40:19;;;;;;;18.73;11.07;;;-5.60;99.90;;;;;;478439;248;27407;-65
2024/01/10 04:42:20;;;;;;;19.52;10.95;;;-5.60;99.90;;;;;;478434;247;27494;-65
2024/01/10 04:44:21;;;;;;;21.48;11.60;;;-5.70;99.90;;;;;;478414;248;27490;-64
2024/01/10 04:46:23;;;;;;;21.20;12.65;;;-5.60;99.90;;;;;;478444;248;27507;-64
2024/01/10 04:48:24;;;;;;;23.45;12.60;;;-5.60;99.90;;;;;;478435;248;28021;-66
2024/01/10 04:50:25;;;;;;;21.50;11.85;;;-5.60;99.90;;;;;;478441;248;27968;-65
2024/01/10 04:52:26;;;;;;;20.98;11.40;;;-5.50;99.90;;;;;;478437;248;27419;-64
2024/01/10 04:54:28;;;;;;;23.05;12.18;;;-5.50;99.90;;;;;;478413;248;27395;-64
2024/01/10 04:56:29;;;;;;;21.12;11.80;;;-5.50;99.90;;;;;;478450;247;27478;-64
2024/01/10 04:58:32;;;;;;;22.13;12.68;;;-5.60;99.90;;;;;;478453;248;27431;-65
2024/01/10 05:00:32;;;;;;;24.30;13.10;;;-5.60;99.90;;;;;;478339;248;27824;-64
2024/01/10 05:02:33;;;;;;;25.02;13.55;;;-5.50;99.90;;;;;;478448;248;27982;-64
2024/01/10 05:04:34;;;;;;;20.58;12.80;;;-5.50;99.90;;;;;;478403;248;27497;-65
2024/01/10 05:06:36;;;;;;;22.50;13.23;;;-5.50;99.90;;;;;;478444;248;27498;-65
2024/01/10 05:08:37;;;;;;;22.83;13.30;;;-5.50;99.90;;;;;;478409;247;27403;-64
2024/01/10 05:10:38;;;;;;;22.85;13.18;;;-5.40;99.90;;;;;;478465;248;27904;-64
2024/01/10 05:12:39;;;;;;;20.88;12.75;;;-5.30;99.90;;;;;;478427;248;27433;-65
2024/01/10 05:14:40;;;;;;;22.52;12.20;;;-5.40;99.90;;;;;;478248;248;27891;-65
2024/01/10 05:16:42;;;;;;;28.27;13.95;;;-5.40;99.90;;;;;;478447;248;27403;-64
2024/01/10 05:18:43;;;;;;;23.38;13.60;;;-5.40;99.90;;;;;;478438;247;27435;-64
2024/01/10 05:20:44;;;;;;;25.02;13.43;;;-5.40;99.90;;;;;;478441;248;27514;-65
2024/01/10 05:22:45;;;;;;;20.65;12.95;;;-5.50;99.90;;;;;;478431;248;27415;-65
2024/01/10 05:24:47;;;;;;;21.80;13.70;;;-5.50;99.90;;;;;;478414;248;27491;-64
2024/01/10 05:26:51;;;;;;;22.73;12.63;;;-5.50;99.90;;;;;;478444;248;27951;-64
2024/01/10 05:28:49;;;;;;;22.23;12.68;;;-5.50;99.90;;;;;;478295;248;27878;-64
2024/01/10 05:30:50;;;;;;;23.27;14.60;;;-5.50;99.90;;;;;;478440;248;27402;-65
2024/01/10 05:32:52;;;;;;;24.00;14.93;;;-5.50;99.90;;;;;;478439;248;27415;-64
2024/01/10 05:34:53;;;;;;;24.15;14.30;;;-5.50;99.90;;;;;;478399;247;27430;-64
2024/01/10 05:36:54;;;;;;;26.37;15.35;;;-5.40;99.90;;;;;;478459;248;27391;-64
2024/01/10 05:38:57;;;;;;;25.67;14.80;;;;;;;;;;478335;248;27971;-65
2024/01/10 05:40:58;;;;;;;21.58;13.05;;;-5.50;99.90;;;;;;478442;248;26719;-65
2024/01/10 05:43:02;;;;;;;20.52;12.07;;;-5.40;99.90;;;;;;478425;248;27506;-65
2024/01/10 05:45:03;;;;;;;23.05;13.88;;;-5.40;99.90;;;;;;478412;248;27444;-64
2024/01/10 05:47:04;;;;;;;21.60;12.77;;;-5.50;99.90;;;;;;478442;248;28056;-64
2024/01/10 05:49:06;;;;;;;23.42;12.20;;;-5.50;99.90;;;;;;478431;248;27867;-64
2024/01/10 05:51:07;;;;;;;18.77;11.50;;;-5.50;99.90;;;;;;478425;248;27419;-65
2024/01/10 05:53:10;;;;;;;20.70;12.40;;;-5.60;99.90;;;;;;478438;248;27411;-65
2024/01/10 05:55:09;;;;;;;21.95;12.60;;;-5.50;99.90;;;;;;478329;248;27403;-65
2024/01/10 05:57:11;;;;;;;23.10;11.85;;;-5.60;99.90;;;;;;478439;248;27529;-66
2024/01/10 05:59:12;;;;;;;21.17;12.57;;;-5.50;99.90;;;;;;478433;248;27927;-64
2024/01/10 06:01:13;;;;;;;20.80;11.73;;;-5.50;99.90;;;;;;478395;248;28004;-65
2024/01/10 06:03:14;;;;;;;20.80;12.60;;;-5.50;99.90;;;;;;478429;248;27404;-64
2024/01/10 06:05:16;;;;;;;25.60;14.40;;;-5.50;99.90;;;;;;478390;248;27421;-64
2024/01/10 06:07:17;;;;;;;24.67;14.02;;;-5.50;99.90;;;;;;478341;248;27498;-65
2024/01/10 06:09:21;;;;;;;21.42;13.05;;;-5.50;99.90;;;;;;478435;248;27423;-65
2024/01/10 06:11:19;;;;;;;25.37;14.98;;;-5.50;99.90;;;;;;478249;248;27806;-64
2024/01/10 06:13:21;;;;;;;25.83;13.68;;;-5.50;99.90;;;;;;478323;248;27947;-64
2024/01/10 06:15:22;;;;;;;22.95;13.52;;;-5.50;99.90;;;;;;478297;248;27487;-65
2024/01/10 06:17:23;;;;;;;21.80;13.05;;;-5.60;99.90;;;;;;478424;248;27514;-66
2024/01/10 06:19:24;;;;;;;21.98;13.88;;;-5.50;99.90;;;;;;478431;248;27411;-65
2024/01/10 06:21:26;;;;;;;25.85;14.10;;;-5.50;99.90;;;;;;478434;248;28534;-64
2024/01/10 06:23:27;;;;;;;29.35;15.18;;;-5.50;99.90;;;;;;478359;248;27531;-65
2024/01/10 06:25:28;;;;;;;24.33;14.07;;;-5.60;99.90;;;;;;478415;248;27879;-64
2024/01/10 06:27:30;;;;;;;29.05;14.82;;;-5.60;99.90;;;;;;478459;248;27953;-65
2024/01/10 06:29:31;;;;;;;24.12;14.57;;;-5.60;99.90;;;;;;478450;248;27399;-64
2024/01/10 06:31:32;;;;;;;20.23;12.32;;;-5.60;99.90;;;;;;478448;248;27414;-64
2024/01/10 06:33:33;;;;;;;21.27;12.52;;;-5.50;99.90;;;;;;478455;248;27442;-64
2024/01/10 06:35:35;;;;;;;21.08;12.07;;;-5.50;99.90;;;;;;478410;248;27407;-64
2024/01/10 06:37:36;;;;;;;24.73;14.00;;;-5.60;99.90;;;;;;478450;247;27884;-65
2024/01/10 06:39:37;;;;;;;25.02;14.32;;;-5.60;99.90;;;;;;478463;248;27959;-64
2024/01/10 06:41:38;;;;;;;24.37;12.30;;;-5.60;99.90;;;;;;478444;248;27387;-65
2024/01/10 06:43:40;;;;;;;27.90;14.35;;;-5.70;99.90;;;;;;478456;247;27426;-65
2024/01/10 06:45:42;;;;;;;20.27;13.07;;;-5.60;99.90;;;;;;478422;248;27493;-65
2024/01/10 06:47:42;;;;;;;24.20;14.02;;;-5.70;99.90;;;;;;478419;248;27425;-64
2024/01/10 06:49:43;;;;;;;25.08;13.32;;;-5.70;99.90;;;;;;478458;248;27521;-65
2024/01/10 06:51:45;;;;;;;25.88;13.57;;;-5.70;99.90;;;;;;478438;248;27941;-65
2024/01/10 06:53:46;;;;;;;25.33;12.68;;;-5.70;99.90;;;;;;478456;248;27423;-64
2024/01/10 06:55:48;;;;;;;23.73;13.68;;;-5.80;99.90;;;;;;478411;248;27868;-64
2024/01/10 06:57:51;;;;;;;22.87;12.30;;;-5.80;99.90;;;;;;478446;248;27406;-64
2024/01/10 06:59:50;;;;;;;22.58;13.62;;;-5.90;99.90;;;;;;478353;248;27431;-64
2024/01/10 07:01:51;;;;;;;22.50;12.23;;;-5.90;99.90;;;;;;478439;248;27415;-64
2024/01/10 07:03:52;;;;;;;26.12;13.70;;;-5.90;99.90;;;;;;478460;248;27442;-64
2024/01/10 07:05:54;;;;;;;22.15;13.23;;;-5.90;99.90;;;;;;478443;247;27427;-64
2024/01/10 07:07:55;;;;;;;21.17;12.88;;;-5.90;99.90;;;;;;478449;248;27945;-65
2024/01/10 07:09:56;;;;;;;22.35;13.23;;;-5.90;99.90;;;;;;478457;248;27943;-65
2024/01/10 07:11:57;;;;;;;24.63;14.20;;;-5.90;99.90;;;;;;478450;248;27403;-64
2024/01/10 07:13:59;;;;;;;25.45;14.45;;;-5.90;99.90;;;;;;478420;248;27414;-64
2024/01/10 07:16:01;;;;;;;26.45;13.95;;;-5.80;99.90;;;;;;478463;248;27471;-66
2024/01/10 07:18:02;;;;;;;24.67;14.50;;;-5.80;99.90;;;;;;478389;248;27509;-64
2024/01/10 07:20:03;;;;;;;27.60;14.95;;;-5.80;99.90;;;;;;478458;248;27973;-65
2024/01/10 07:22:04;;;;;;;23.40;13.57;;;-5.70;99.90;;;;;;478447;248;27901;-64
2024/01/10 07:24:05;;;;;;;22.65;13.40;;;-5.70;99.90;;;;;;478415;248;27398;-64
2024/01/10 07:26:06;;;;;;;27.25;14.82;;;-5.70;99.90;;;;;;478448;248;27402;-65
2024/01/10 07:28:07;;;;;;;20.95;12.45;;;-5.70;99.90;;;;;;478451;247;27415;-64
2024/01/10 07:30:14;;;;;;;25.77;13.50;;;-5.70;99.90;;;;;;478445;248;27419;-65
2024/01/10 07:32:16;;;;;;;26.92;14.87;;;-5.70;99.90;;;;;;478451;248;27402;-64
2024/01/10 07:34:17;;;;;;;28.83;15.55;;;-5.60;99.90;;;;;;478408;248;27407;-65
2024/01/10 07:36:18;;;;;;;44.22;14.90;;;-5.60;99.90;;;;;;478439;248;27500;-65
2024/01/10 07:38:19;;;;;;;25.10;13.80;;;-5.40;99.90;;;;;;478446;248;27414;-65
2024/01/10 07:40:22;;;;;;;26.25;14.27;;;-5.40;99.90;;;;;;478445;248;27422;-65
2024/01/10 07:42:22;;;;;;;33.22;15.55;;;-5.30;99.90;;;;;;478380;248;27970;-65
2024/01/10 07:44:24;;;;;;;21.85;12.85;;;-5.20;99.90;;;;;;478408;248;27410;-64
2024/01/10 07:46:26;;;;;;;29.63;15.43;;;-5.10;99.90;;;;;;478430;248;27418;-66
2024/01/10 07:48:26;;;;;;;25.73;14.98;;;-5.00;99.90;;;;;;478356;248;27487;-65
2024/01/10 07:50:27;;;;;;;23.00;13.52;;;-4.90;99.90;;;;;;478447;248;27431;-65
2024/01/10 07:52:28;;;;;;;25.37;14.05;;;-4.90;99.90;;;;;;478443;248;27413;-64
2024/01/10 07:54:31;;;;;;;35.15;14.68;;;-4.90;99.90;;;;;;478415;248;27888;-65
2024/01/10 07:56:31;;;;;;;24.42;13.62;;;-4.70;99.90;;;;;;478359;248;27985;-64
2024/01/10 07:58:33;;;;;;;22.87;13.13;;;;;;;;;;478445;248;27482;-65
2024/01/10 08:00:36;;;;;;;26.95;14.73;;;;;;;;;;478442;248;27679;-65
2024/01/10 08:02:38;;;;;;;26.75;14.20;;;;;;;;;;478443;248;26818;-64
2024/01/10 08:04:39;;;;;;;25.10;13.40;;;-4.50;99.90;;;;;;478408;248;28304;-65
2024/01/10 08:06:42;;;;;;;24.23;13.68;;;;;;;;;;478451;248;27427;-65
2024/01/10 08:08:43;;;;;;;22.33;12.98;;;-4.40;99.90;;;;;;478448;248;26800;-64
2024/01/10 08:10:44;;;;;;;20.92;12.90;;;-4.30;99.90;;;;;;478440;248;27897;-65
2024/01/10 08:12:47;;;;;;;23.27;13.70;;;;;;;;;;478442;248;27973;-66
2024/01/10 08:14:50;;;;;;;25.65;13.82;;;;;;;;;;478412;248;26734;-65
2024/01/10 08:16:54;;;;;;;27.85;13.35;;;;;;;;;;484344;245;26829;-65
2024/01/10 08:18:54;;;;;;;21.10;12.60;;;;;;;;;;485067;245;27259;-65
2024/01/10 08:20:56;;;;;;;23.50;13.52;;;;;;;;;;485225;245;26511;-65
2024/01/10 08:22:59;;;;;;;33.97;13.90;;;;;;;;;;485202;245;28282;-65
2024/01/10 08:25:00;;;;;;;19.70;13.48;;;-3.90;99.90;;;;;;485186;245;26590;-64
2024/01/10 08:27:03;;;;;;;20.85;12.85;;;;;;;;;;485200;245;26979;-66
2024/01/10 08:29:05;;;;;;;24.75;12.65;;;;;;;;;;485210;245;26723;-65
2024/01/10 08:31:07;;;;;;;28.40;13.68;;;;;;;;;;485209;245;27079;-65
2024/01/10 08:33:10;;;;;;;23.25;12.65;;;;;;;;;;485216;245;26515;-64
2024/01/10 08:35:11;;;;;;;25.70;14.30;;;-3.60;99.90;;;;;;485167;242;28097;-65
2024/01/10 08:37:12;;;;;;;22.15;13.15;;;-3.50;99.90;;;;;;485204;245;26962;-64
2024/01/10 08:39:14;;;;;;;22.90;13.23;;;-3.30;99.90;;;;;;485215;245;26997;-65
2024/01/10 08:41:15;;;;;;;25.42;14.45;;;-3.40;99.90;;;;;;485207;245;27213;-65
2024/01/10 08:43:17;;;;;;;24.50;13.35;;;-3.30;99.90;;;;;;485196;245;27082;-65
2024/01/10 08:45:17;;;;;;;25.00;14.40;;;-3.30;99.90;;;;;;485090;245;27090;-65
2024/01/10 08:47:19;;;;;;;27.62;13.85;;;-3.40;99.90;;;;;;485204;245;27794;-64
2024/01/10 08:49:20;;;;;;;27.10;13.65;;;-3.40;99.90;;;;;;485185;245;27309;-65
2024/01/10 08:51:21;;;;;;;26.55;14.40;;;-3.40;99.90;;;;;;485205;245;27215;-65
2024/01/10 08:53:22;;;;;;;28.42;13.80;;;-3.40;99.90;;;;;;485225;245;27191;-65
2024/01/10 08:55:24;;;;;;;32.47;16.60;;;-3.40;99.90;;;;;;485184;245;27330;-65
2024/01/10 08:57:27;;;;;;;36.70;19.35;;;-3.20;99.90;;;;;;485198;245;27162;-64
2024/01/10 08:59:27;;;;;;;29.17;16.87;;;-3.20;99.90;;;;;;485027;245;27739;-65
2024/01/10 09:01:27;;;;;;;26.92;14.38;;;-3.10;99.90;;;;;;485131;245;28723;-64
2024/01/10 09:03:29;;;;;;;24.33;14.90;;;-3.10;99.90;;;;;;485202;245;27371;-65
2024/01/10 09:05:30;;;;;;;25.37;14.27;;;-3.00;99.90;;;;;;485185;245;27406;-65
2024/01/10 09:07:31;;;;;;;22.85;12.40;;;-3.00;99.90;;;;;;485208;245;27326;-65
2024/01/10 09:09:32;;;;;;;24.12;13.23;;;-2.90;99.90;;;;;;485182;245;27191;-65
2024/01/10 09:11:34;;;;;;;24.80;13.35;;;-2.90;99.90;;;;;;485197;245;28029;-66
2024/01/10 09:13:37;;;;;;;22.67;13.40;;;-2.90;99.90;;;;;;485192;245;28968;-65
2024/01/10 09:15:36;;;;;;;26.00;13.88;;;-2.80;99.90;;;;;;485016;245;27437;-64
2024/01/10 09:17:37;;;;;;;25.83;14.18;;;-2.80;99.90;;;;;;485196;245;27426;-65
2024/01/10 09:19:39;;;;;;;26.98;14.77;;;-2.80;99.90;;;;;;485212;245;27480;-65
2024/01/10 09:21:40;;;;;;;22.45;12.95;;;-2.70;99.90;;;;;;485200;245;27418;-66
2024/01/10 09:23:41;;;;;;;27.37;14.15;;;-2.70;99.90;;;;;;485208;245;27480;-65
2024/01/10 09:25:42;;;;;;;23.83;14.85;;;-2.80;99.90;;;;;;485181;245;27860;-65
2024/01/10 09:27:44;;;;;;;25.27;15.02;;;-2.80;99.90;;;;;;485207;245;27387;-65
2024/01/10 09:29:45;;;;;;;22.98;14.60;;;-2.80;99.90;;;;;;485180;245;27535;-65
2024/01/10 09:31:46;;;;;;;19.98;12.82;;;-2.80;99.90;;;;;;485196;245;27495;-65
2024/01/10 09:33:48;;;;;;;23.33;13.98;;;-2.80;99.90;;;;;;485197;245;27323;-66
2024/01/10 09:35:49;;;;;;;23.08;12.95;;;-2.80;99.90;;;;;;485166;245;27292;-65
2024/01/10 09:37:50;;;;;;;22.40;13.60;;;-2.90;99.90;;;;;;485076;245;27951;-65
2024/01/10 09:39:52;;;;;;;25.45;14.98;;;-2.80;99.90;;;;;;485201;245;27882;-65
2024/01/10 09:41:53;;;;;;;26.77;15.77;;;-2.70;99.90;;;;;;485167;245;27334;-65
2024/01/10 09:43:54;;;;;;;27.05;15.35;;;-2.80;99.90;;;;;;485175;245;27515;-65
2024/01/10 09:45:55;;;;;;;26.77;14.15;;;-2.80;99.90;;;;;;485203;245;27391;-65
2024/01/10 09:47:56;;;;;;;29.60;16.52;;;-2.70;99.90;;;;;;485210;245;27319;-65
2024/01/10 09:49:58;;;;;;;45.42;22.92;;;-2.70;99.90;;;;;;485209;245;27798;-64
2024/01/10 09:52:00;;;;;;;28.73;15.75;;;-2.70;99.90;;;;;;485204;245;27774;-65
2024/01/10 09:54:00;;;;;;;25.55;15.20;;;-2.60;99.90;;;;;;485133;245;27460;-65
2024/01/10 09:56:01;;;;;;;23.58;13.75;;;-2.60;99.90;;;;;;485182;245;27402;-65
2024/01/10 09:58:04;;;;;;;26.00;14.35;;;-2.50;99.90;;;;;;485170;245;27404;-65
2024/01/10 10:00:04;;;;;;;24.27;14.80;;;-2.50;99.90;;;;;;485135;245;27519;-67
2024/01/10 10:02:05;;;;;;;26.00;15.32;;;-2.50;99.90;;;;;;485195;245;27509;-65
2024/01/10 10:04:07;;;;;;;28.67;15.05;;;-2.50;99.90;;;;;;485153;245;27878;-65
2024/01/10 10:06:08;;;;;;;22.67;13.95;;;-2.50;99.90;;;;;;485180;245;27444;-65
2024/01/10 10:08:09;;;;;;;25.80;13.88;;;-2.50;99.90;;;;;;485196;245;27420;-65
2024/01/10 10:10:12;;;;;;;24.48;12.10;;;-2.50;99.90;;;;;;485187;245;27485;-66
2024/01/10 10:12:11;;;;;;;29.08;14.35;;;-2.50;99.90;;;;;;485107;245;27410;-65
2024/01/10 10:14:13;;;;;;;24.70;14.00;;;-2.50;99.90;;;;;;485167;245;27478;-65
2024/01/10 10:16:14;;;;;;;22.70;13.02;;;-2.50;99.90;;;;;;485201;245;27891;-65
2024/01/10 10:18:15;;;;;;;29.85;13.90;;;-2.40;99.90;;;;;;485165;245;27977;-65
2024/01/10 10:20:16;;;;;;;28.05;14.98;;;-2.40;99.90;;;;;;485208;245;27411;-65
2024/01/10 10:22:18;;;;;;;22.70;13.38;;;-2.40;99.90;;;;;;485194;245;27410;-68